createdAt,value
2019-04-25T17:51:40.616Z,20.50
2019-04-25T17:53:43.906Z,20.50
2019-04-25T17:55:47.266Z,20.50
2019-04-25T18:01:02.735Z,20.50
2019-04-25T18:03:04.016Z,20.50
2019-04-25T18:09:13.304Z,20.40
2019-04-25T18:14:14.614Z,20.40
2019-04-25T18:19:15.908Z,20.30
2019-04-25T18:24:17.285Z,20.30
2019-04-25T18:29:18.584Z,20.20
2019-04-25T18:34:19.883Z,20.20
2019-04-25T18:39:21.278Z,20.20
2019-04-25T18:44:22.569Z,20.10
2019-04-25T18:49:23.867Z,20.10
2019-04-25T18:54:25.161Z,20.10
2019-04-25T18:59:26.459Z,20.10
2019-04-25T19:04:27.758Z,20.10
2019-04-25T19:09:29.118Z,20.00
2019-04-25T19:14:30.409Z,20.00
2019-04-25T19:19:31.710Z,20.00
2019-04-25T19:24:33.102Z,20.00
2019-04-25T19:29:34.408Z,20.00
2019-04-25T19:34:35.992Z,20.00
2019-04-25T19:39:37.307Z,19.90
2019-04-25T19:44:38.689Z,19.90
2019-04-25T19:49:40.629Z,19.90
2019-04-25T19:54:43.236Z,19.90
2019-04-25T19:59:44.774Z,19.90
2019-04-25T20:04:46.775Z,19.90
2019-04-25T20:25:15.168Z,15.80
2019-04-25T20:30:16.533Z,14.30
2019-04-25T20:35:18.116Z,13.00
2019-04-25T20:40:19.489Z,12.20
2019-04-25T20:45:21.057Z,11.80
2019-04-25T20:50:22.362Z,11.50
2019-04-25T20:55:23.740Z,11.30
2019-04-25T21:00:24.992Z,11.20
2019-04-25T21:05:26.365Z,11.10
2019-04-25T21:10:27.640Z,11.00
2019-04-25T21:15:28.955Z,11.00
2019-04-25T21:20:30.344Z,10.90
2019-04-25T21:25:31.563Z,10.90
2019-04-25T21:30:32.867Z,10.80
2019-04-25T21:35:34.109Z,10.80
2019-04-25T21:40:35.651Z,10.80
2019-04-25T21:45:37.153Z,10.70
2019-04-25T21:50:38.804Z,10.60
2019-04-25T21:55:40.579Z,10.60
2019-04-25T22:00:42.256Z,10.50
2019-04-25T22:05:43.934Z,10.40
2019-04-25T22:10:45.156Z,10.40
2019-04-25T22:15:46.468Z,10.40
2019-04-25T22:20:48.144Z,10.40
2019-04-25T22:25:50.182Z,10.30
2019-04-25T22:30:51.862Z,10.20
2019-04-25T22:35:53.188Z,10.10
2019-04-25T22:40:54.773Z,10.00
2019-04-25T22:45:56.767Z,10.00
2019-04-25T22:50:59.417Z,9.90
2019-04-25T22:56:01.803Z,9.90
2019-04-25T23:01:03.262Z,9.80
2019-04-25T23:06:04.576Z,9.90
2019-04-25T23:11:06.958Z,9.90
2019-04-25T23:16:08.988Z,9.90
2019-04-25T23:21:10.486Z,9.90
2019-04-25T23:26:12.032Z,9.90
2019-04-25T23:31:14.700Z,10.00
2019-04-25T23:36:16.206Z,10.00
2019-04-25T23:41:17.413Z,10.00
2019-04-25T23:46:20.932Z,10.00
2019-04-25T23:51:22.299Z,10.00
2019-04-25T23:56:23.877Z,10.00
